Creswell, United Kingdom
Current Conditions -  °F | °C
As of 11:50 AM on Thursday 23 Oct 2014 (Local Time) from EGCN Reporting Station
Overcast Overcast  
Wind Chill: 57°   Ceiling: 1600
Heat Index: 57°   Visibility: 6mi
Dew Point: 52°   Wind: 12mph
Humidity: 82%   Direction: 180°S
Pressure: 30.03"   Gusts: NA
Location:  53.25°N, 1.22°W
Report Text: EGCN 231050Z 18010KT 9999 BKN016 OVC025 14/11 Q1017
Loading
Personal Weather Stations






























Interactive Weather Map
Tropical Storm Tracking
New forecast layout! Learn more

10-Day Weather Forecast

Advertisements
Track Severe Weather on mobile